createdAt,value
2018-01-13T00:00:45.947Z,39.03
2018-01-13T00:03:18.685Z,39.10
2018-01-13T00:05:52.118Z,38.17
2018-01-13T00:08:24.680Z,62.27
2018-01-13T00:10:57.878Z,54.70
2018-01-13T00:13:30.961Z,45.80
2018-01-13T00:16:03.683Z,46.43
2018-01-13T00:18:36.426Z,64.33
2018-01-13T00:21:08.938Z,41.97
2018-01-13T00:23:41.501Z,36.53
2018-01-13T00:26:14.162Z,55.13
2018-01-13T00:28:46.895Z,35.37
2018-01-13T00:31:20.407Z,40.17
2018-01-13T00:33:53.069Z,44.87
2018-01-13T00:36:25.743Z,54.87
2018-01-13T00:38:59.159Z,50.67
2018-01-13T00:41:32.103Z,39.83
2018-01-13T00:44:04.957Z,43.27
2018-01-13T00:46:38.085Z,42.63
2018-01-13T00:49:11.618Z,32.67
2018-01-13T00:51:44.257Z,47.43
2018-01-13T00:54:16.775Z,61.63
2018-01-13T00:56:49.937Z,55.53
2018-01-13T00:59:23.585Z,46.97
2018-01-13T01:01:56.315Z,42.87
2018-01-13T01:04:29.105Z,36.40
2018-01-13T01:07:02.653Z,47.20
2018-01-13T01:09:35.384Z,34.67
2018-01-13T01:12:08.010Z,43.13
2018-01-13T01:14:40.541Z,43.57
2018-01-13T01:17:13.389Z,34.90
2018-01-13T01:19:45.923Z,60.63
2018-01-13T01:22:18.593Z,52.27
2018-01-13T01:24:51.138Z,47.07
2018-01-13T01:27:23.794Z,51.63
2018-01-13T01:29:56.288Z,52.00
2018-01-13T01:32:30.057Z,58.40
2018-01-13T01:35:02.691Z,42.00
2018-01-13T01:37:35.339Z,39.03
2018-01-13T01:40:08.975Z,36.43
2018-01-13T01:42:41.500Z,53.97
2018-01-13T01:45:14.228Z,50.27
2018-01-13T01:47:47.178Z,43.17
2018-01-13T01:50:20.733Z,60.33
2018-01-13T01:52:53.501Z,61.43
2018-01-13T01:55:25.986Z,47.63
2018-01-13T01:57:59.819Z,49.73
2018-01-13T02:00:32.661Z,40.37
2018-01-13T02:03:05.558Z,39.77
2018-01-13T02:05:38.181Z,52.67
2018-01-13T02:08:10.958Z,57.43
2018-01-13T02:10:43.700Z,44.27
2018-01-13T02:13:16.569Z,43.40
2018-01-13T02:15:49.402Z,40.40
2018-01-13T02:18:22.147Z,53.80
2018-01-13T02:20:54.886Z,57.07
2018-01-13T02:23:28.473Z,59.27
2018-01-13T02:26:01.199Z,56.43
2018-01-13T02:28:33.759Z,38.63
2018-01-13T02:31:06.299Z,57.97
2018-01-13T02:33:38.926Z,43.10
2018-01-13T02:36:11.456Z,52.50
2018-01-13T02:38:45.023Z,57.03
2018-01-13T02:41:17.665Z,57.30
2018-01-13T02:43:50.186Z,58.40
2018-01-13T02:46:22.833Z,47.93
2018-01-13T02:48:56.493Z,55.07
2018-01-13T02:51:30.131Z,51.60
2018-01-13T02:54:02.708Z,45.03
2018-01-13T02:56:35.442Z,65.07
2018-01-13T02:59:07.980Z,39.37
2018-01-13T03:01:41.719Z,39.77
2018-01-13T03:04:14.588Z,54.20
2018-01-13T03:09:26.154Z,48.97
2018-01-13T03:11:59.800Z,66.77
2018-01-13T03:14:32.552Z,63.73
2018-01-13T03:17:05.087Z,61.07
2018-01-13T03:22:17.361Z,50.00
2018-01-13T03:24:49.931Z,59.93
2018-01-13T03:27:22.561Z,55.47
2018-01-13T03:29:55.092Z,59.87
2018-01-13T03:32:28.114Z,52.70
2018-01-13T03:35:01.397Z,68.80
2018-01-13T03:37:33.924Z,60.50
2018-01-13T03:40:06.565Z,56.83
2018-01-13T03:42:39.194Z,55.40
2018-01-13T03:45:12.949Z,62.00
2018-01-13T03:47:46.663Z,65.83
2018-01-13T03:50:19.294Z,49.83
2018-01-13T03:52:52.050Z,68.67
2018-01-13T03:55:24.712Z,53.57
2018-01-13T03:57:58.794Z,51.00
2018-01-13T04:00:31.862Z,62.37
2018-01-13T04:03:04.523Z,68.43
2018-01-13T04:05:38.042Z,58.73
2018-01-13T04:08:11.703Z,65.77
2018-01-13T04:10:44.563Z,52.53
2018-01-13T04:13:17.727Z,70.77
2018-01-13T04:15:50.458Z,69.63
2018-01-13T04:18:23.332Z,59.90
2018-01-13T04:20:56.263Z,59.23
2018-01-13T04:23:29.848Z,55.13
2018-01-13T04:26:02.459Z,64.07
2018-01-13T04:28:35.232Z,52.13
2018-01-13T04:31:08.860Z,48.60
2018-01-13T04:33:41.603Z,57.93
2018-01-13T04:36:14.249Z,62.77
2018-01-13T04:38:47.119Z,56.60
2018-01-13T04:41:19.748Z,56.27
2018-01-13T04:43:52.664Z,67.33
2018-01-13T04:46:25.176Z,73.30
2018-01-13T04:48:59.641Z,71.33
2018-01-13T04:51:32.289Z,52.60
2018-01-13T04:54:05.131Z,54.47
2018-01-13T04:56:37.778Z,65.97
2018-01-13T04:59:11.417Z,73.57
2018-01-13T05:01:44.246Z,59.27
2018-01-13T05:04:16.788Z,58.43
2018-01-13T05:06:49.632Z,67.87
2018-01-13T05:09:23.281Z,52.53
2018-01-13T05:11:56.973Z,63.97
2018-01-13T05:14:29.494Z,73.07
2018-01-13T05:17:02.025Z,59.13
2018-01-13T05:19:34.696Z,47.90
2018-01-13T05:22:07.443Z,68.40
2018-01-13T05:24:41.035Z,68.10
2018-01-13T05:27:14.066Z,54.30
2018-01-13T05:29:46.803Z,56.00
2018-01-13T05:32:19.311Z,68.13
2018-01-13T05:34:52.267Z,55.63
2018-01-13T05:37:25.158Z,63.13
2018-01-13T05:39:58.324Z,56.90
2018-01-13T05:42:31.639Z,49.50
2018-01-13T05:45:04.308Z,48.70
2018-01-13T05:47:37.148Z,53.20
2018-01-13T05:50:09.810Z,59.57
2018-01-13T05:52:42.756Z,55.53
2018-01-13T05:55:15.330Z,84.20
2018-01-13T05:57:47.978Z,71.53
2018-01-13T06:00:20.536Z,65.33
2018-01-13T06:02:54.169Z,60.77
2018-01-13T06:05:27.393Z,69.53
2018-01-13T06:08:00.683Z,64.13
2018-01-13T06:10:34.206Z,64.80
2018-01-13T06:13:07.289Z,48.87
2018-01-13T06:15:40.591Z,60.13
2018-01-13T06:18:13.346Z,55.33
2018-01-13T06:20:48.624Z,56.57
2018-01-13T06:23:21.543Z,67.83
2018-01-13T06:25:55.296Z,70.93
2018-01-13T06:28:28.153Z,67.43
2018-01-13T06:31:05.178Z,65.63
2018-01-13T06:33:38.540Z,74.53
2018-01-13T06:36:12.147Z,69.93
2018-01-13T06:38:45.669Z,57.10
2018-01-13T06:41:18.304Z,65.50
2018-01-13T06:43:51.502Z,57.50
2018-01-13T06:46:24.482Z,69.50
2018-01-13T06:48:58.017Z,68.97
2018-01-13T06:51:30.565Z,82.50
2018-01-13T06:54:03.386Z,64.40
2018-01-13T06:56:36.740Z,86.10
2018-01-13T06:59:09.280Z,69.33
2018-01-13T07:01:42.200Z,98.63
2018-01-13T07:04:15.162Z,82.90
2018-01-13T07:06:48.031Z,71.43
2018-01-13T07:09:21.699Z,79.50
2018-01-13T07:11:54.442Z,92.17
2018-01-13T07:14:28.347Z,87.70
2018-01-13T07:17:00.849Z,67.90
2018-01-13T07:19:34.133Z,86.23
2018-01-13T07:22:06.968Z,72.67
2018-01-13T07:24:39.709Z,83.33
2018-01-13T07:27:13.373Z,69.30
2018-01-13T07:29:45.910Z,77.60
2018-01-13T07:32:19.538Z,67.37
2018-01-13T07:34:52.293Z,82.00
2018-01-13T07:37:24.914Z,85.77
2018-01-13T07:39:59.433Z,77.47
2018-01-13T07:42:33.176Z,65.60
2018-01-13T07:45:05.700Z,87.87
2018-01-13T07:47:38.529Z,66.23
2018-01-13T07:50:11.819Z,90.20
2018-01-13T07:52:44.636Z,68.23
2018-01-13T07:55:18.459Z,75.27
2018-01-13T07:57:51.001Z,81.63
2018-01-13T08:00:23.526Z,88.27
2018-01-13T08:02:56.348Z,82.73
2018-01-13T08:05:29.152Z,69.70
2018-01-13T08:08:01.870Z,81.13
2018-01-13T08:10:34.534Z,76.90
2018-01-13T08:13:07.288Z,80.60
2018-01-13T08:15:39.939Z,66.77
2018-01-13T08:18:12.886Z,68.93
2018-01-13T08:20:45.521Z,90.80
2018-01-13T08:23:18.148Z,64.97
2018-01-13T08:25:50.900Z,65.23
2018-01-13T08:28:23.627Z,69.17
2018-01-13T08:30:57.679Z,65.17
2018-01-13T08:33:30.229Z,63.30
2018-01-13T08:36:03.099Z,65.00
2018-01-13T08:38:35.712Z,70.37
2018-01-13T08:41:08.360Z,72.80
2018-01-13T08:43:41.003Z,55.93
2018-01-13T08:46:13.933Z,68.77
2018-01-13T08:48:47.353Z,65.63
2018-01-13T08:51:19.899Z,78.10
2018-01-13T08:53:52.624Z,71.73
2018-01-13T08:56:25.191Z,84.97
2018-01-13T08:58:58.919Z,62.67
2018-01-13T09:01:32.487Z,72.97
2018-01-13T09:04:05.403Z,63.07
2018-01-13T09:06:38.451Z,78.87
2018-01-13T09:09:11.212Z,72.23
2018-01-13T09:11:44.245Z,71.80
2018-01-13T09:14:16.907Z,63.43
2018-01-13T09:16:49.563Z,63.40
2018-01-13T09:19:23.410Z,73.77
2018-01-13T09:21:56.160Z,66.37
2018-01-13T09:24:28.816Z,73.90
2018-01-13T09:27:01.461Z,66.23
2018-01-13T09:29:34.001Z,70.67
2018-01-13T09:32:06.753Z,70.77
2018-01-13T09:34:39.604Z,61.73
2018-01-13T09:37:12.379Z,66.13
2018-01-13T09:39:44.922Z,67.50
2018-01-13T09:42:17.560Z,72.27
2018-01-13T09:44:50.228Z,71.37
2018-01-13T09:47:22.852Z,72.80
2018-01-13T09:49:55.525Z,62.20
2018-01-13T09:52:28.132Z,66.40
2018-01-13T09:55:00.798Z,77.20
2018-01-13T09:57:33.423Z,79.40
2018-01-13T10:00:06.074Z,70.47
2018-01-13T10:02:38.804Z,70.93
2018-01-13T10:05:11.491Z,69.17
2018-01-13T10:07:44.000Z,81.90
2018-01-13T10:10:16.767Z,72.33
2018-01-13T10:12:50.409Z,74.03
2018-01-13T10:15:23.092Z,72.53
2018-01-13T10:17:55.917Z,67.87
2018-01-13T10:20:28.585Z,78.37
2018-01-13T10:23:01.077Z,69.47
2018-01-13T10:25:33.600Z,61.53
2018-01-13T10:28:06.102Z,72.47
2018-01-13T10:30:38.943Z,70.10
2018-01-13T10:33:15.986Z,71.50
2018-01-13T10:35:48.620Z,69.07
2018-01-13T10:38:21.310Z,71.40
2018-01-13T10:40:53.997Z,75.47
2018-01-13T10:43:26.737Z,60.37
2018-01-13T10:45:59.666Z,73.10
2018-01-13T10:48:32.283Z,62.90
2018-01-13T10:51:04.842Z,60.73
2018-01-13T10:53:37.385Z,54.37
2018-01-13T10:56:10.151Z,71.33
2018-01-13T10:58:42.679Z,57.47
2018-01-13T11:01:15.449Z,68.27
2018-01-13T11:03:48.082Z,68.90
2018-01-13T11:06:20.636Z,69.20
2018-01-13T11:08:53.171Z,67.00
2018-01-13T11:11:26.954Z,73.93
2018-01-13T11:13:59.694Z,65.07
2018-01-13T11:16:32.259Z,73.87
2018-01-13T11:19:05.984Z,73.87
2018-01-13T11:21:39.529Z,68.17
2018-01-13T11:24:12.286Z,67.20
2018-01-13T11:26:45.124Z,68.03
2018-01-13T11:29:17.848Z,67.87
2018-01-13T11:31:51.407Z,71.00
2018-01-13T11:34:24.040Z,62.37
2018-01-13T11:36:57.861Z,66.13
2018-01-13T11:39:31.230Z,65.03
2018-01-13T11:42:04.384Z,74.57
2018-01-13T11:44:38.133Z,70.50
2018-01-13T11:47:10.666Z,65.57
2018-01-13T11:49:43.799Z,67.20
2018-01-13T11:52:16.461Z,67.00
2018-01-13T11:54:50.003Z,67.70
2018-01-13T11:57:22.659Z,71.47
2018-01-13T11:59:55.168Z,71.03
2018-01-13T12:02:28.038Z,76.23
2018-01-13T12:05:03.650Z,70.47
2018-01-13T12:07:36.468Z,77.77
2018-01-13T12:10:10.003Z,70.13
2018-01-13T12:12:42.778Z,68.10
2018-01-13T12:15:15.280Z,69.47
2018-01-13T12:17:48.744Z,73.07
2018-01-13T12:20:21.389Z,69.83
2018-01-13T12:22:54.986Z,76.70
2018-01-13T12:25:27.780Z,68.67
2018-01-13T12:28:01.381Z,68.97
2018-01-13T12:30:34.817Z,64.27
2018-01-13T12:33:07.442Z,65.57
2018-01-13T12:35:40.025Z,69.20
2018-01-13T12:38:12.575Z,66.50
2018-01-13T12:40:45.657Z,69.60
2018-01-13T12:43:18.223Z,64.63
2018-01-13T12:45:50.811Z,74.03
2018-01-13T12:48:23.341Z,68.30
2018-01-13T12:50:55.896Z,74.97
2018-01-13T12:53:28.471Z,63.33
2018-01-13T12:56:01.336Z,65.63
2018-01-13T12:58:34.256Z,70.93
2018-01-13T13:01:07.788Z,67.03
2018-01-13T13:03:40.429Z,66.47
2018-01-13T13:06:13.086Z,64.07
2018-01-13T13:08:45.588Z,57.67
2018-01-13T13:11:18.626Z,65.20
2018-01-13T13:13:51.254Z,56.93
2018-01-13T13:16:23.920Z,53.63
2018-01-13T13:18:57.671Z,51.93
2018-01-13T13:21:30.424Z,57.33
2018-01-13T13:24:02.948Z,59.63
2018-01-13T13:26:35.597Z,57.43
2018-01-13T13:29:09.246Z,56.07
2018-01-13T13:31:41.891Z,58.40
2018-01-13T13:34:14.512Z,53.43
2018-01-13T13:36:47.145Z,36.83
2018-01-13T13:39:19.678Z,56.30
2018-01-13T13:41:53.025Z,52.33
2018-01-13T13:44:26.168Z,53.30
2018-01-13T13:46:58.822Z,56.03
2018-01-13T13:49:31.636Z,48.90
2018-01-13T13:52:05.855Z,48.43
2018-01-13T13:54:38.371Z,50.10
2018-01-13T13:57:11.325Z,42.53
2018-01-13T13:59:50.347Z,43.97
2018-01-13T14:02:17.519Z,41.10
2018-01-13T14:04:50.146Z,49.77
2018-01-13T14:07:22.831Z,46.43
2018-01-13T14:09:55.476Z,49.10
2018-01-13T14:12:28.115Z,45.40
2018-01-13T14:15:00.734Z,42.47
2018-01-13T14:17:33.690Z,44.70
2018-01-13T14:20:06.319Z,39.57
2018-01-13T14:22:39.050Z,37.17
2018-01-13T14:25:11.564Z,39.43
2018-01-13T14:27:44.092Z,40.23
2018-01-13T14:30:16.960Z,39.17
2018-01-13T14:32:50.627Z,39.20
2018-01-13T14:35:23.448Z,36.73
2018-01-13T14:37:56.296Z,35.83
2018-01-13T14:40:28.847Z,35.33
2018-01-13T14:43:01.472Z,38.33
2018-01-13T14:45:33.988Z,39.30
2018-01-13T14:48:06.647Z,33.07
2018-01-13T14:50:40.155Z,33.20
2018-01-13T14:53:12.823Z,31.20
2018-01-13T14:55:45.543Z,32.60
2018-01-13T14:58:18.172Z,31.77
2018-01-13T15:00:53.719Z,31.83
2018-01-13T15:03:26.377Z,31.77
2018-01-13T15:05:58.951Z,30.57
2018-01-13T15:08:31.528Z,29.73
2018-01-13T15:11:04.174Z,30.67
2018-01-13T15:13:37.046Z,29.93
2018-01-13T15:16:09.603Z,26.73
2018-01-13T15:18:42.631Z,30.47
2018-01-13T15:21:15.471Z,32.33
2018-01-13T15:23:48.420Z,32.30
2018-01-13T15:26:21.042Z,30.63
2018-01-13T15:28:54.716Z,30.17
2018-01-13T15:31:27.590Z,28.60
2018-01-13T15:34:00.527Z,29.40
2018-01-13T15:36:33.285Z,30.03
2018-01-13T15:39:07.314Z,26.97
2018-01-13T15:41:40.584Z,25.57
2018-01-13T15:44:14.242Z,27.53
2018-01-13T15:46:47.014Z,24.90
2018-01-13T15:49:19.752Z,25.13
2018-01-13T15:51:52.449Z,24.17
2018-01-13T15:54:25.099Z,27.77
2018-01-13T15:59:37.390Z,26.97
2018-01-13T16:02:10.025Z,30.40
2018-01-13T16:04:43.628Z,31.07
2018-01-13T16:07:16.546Z,34.10
2018-01-13T16:09:49.248Z,26.03
2018-01-13T16:12:22.000Z,26.00
2018-01-13T16:14:54.851Z,32.60
2018-01-13T16:17:27.736Z,28.33
2018-01-13T16:20:00.487Z,25.40
2018-01-13T16:22:33.072Z,26.57
2018-01-13T16:25:05.599Z,26.13
2018-01-13T16:27:38.236Z,24.30
2018-01-13T16:30:10.893Z,25.67
2018-01-13T16:32:43.556Z,23.43
2018-01-13T16:35:16.200Z,20.50
2018-01-13T16:37:48.735Z,24.50
2018-01-13T16:40:21.353Z,22.80
2018-01-13T16:42:53.868Z,20.63
2018-01-13T16:45:26.670Z,22.57
2018-01-13T16:48:00.145Z,22.23
2018-01-13T16:50:32.871Z,22.70
2018-01-13T16:53:05.532Z,21.47
2018-01-13T16:55:38.142Z,20.10
2018-01-13T16:58:10.909Z,22.60
2018-01-13T17:00:43.530Z,24.77
2018-01-13T17:03:16.333Z,19.30
2018-01-13T17:05:49.906Z,19.70
2018-01-13T17:08:22.580Z,18.77
2018-01-13T17:10:55.320Z,19.40
2018-01-13T17:13:27.973Z,20.63
2018-01-13T17:16:00.708Z,21.67
2018-01-13T17:18:33.564Z,20.97
2018-01-13T17:21:06.199Z,20.63
2018-01-13T17:23:38.882Z,12.77
2018-01-13T17:26:11.377Z,25.30
2018-01-13T17:28:44.137Z,20.17
2018-01-13T17:31:16.638Z,19.10
2018-01-13T17:33:50.117Z,20.57
2018-01-13T17:36:23.734Z,17.33
2018-01-13T17:38:57.627Z,15.80
2018-01-13T17:41:30.286Z,20.90
2018-01-13T17:44:02.863Z,17.83
2018-01-13T17:46:35.348Z,14.30
2018-01-13T17:49:09.323Z,17.90
2018-01-13T17:51:41.948Z,15.47
2018-01-13T17:54:14.621Z,18.83
2018-01-13T17:56:47.174Z,16.80
2018-01-13T17:59:20.938Z,18.73
2018-01-13T18:01:54.440Z,18.00
2018-01-13T18:04:27.273Z,20.43
2018-01-13T18:07:00.788Z,19.53
2018-01-13T18:09:33.542Z,19.17
2018-01-13T18:12:07.211Z,17.50
2018-01-13T18:14:39.880Z,19.40
2018-01-13T18:17:12.408Z,17.57
2018-01-13T18:19:45.046Z,13.63
2018-01-13T18:22:18.861Z,19.43
2018-01-13T18:24:51.490Z,18.30
2018-01-13T18:27:24.036Z,19.07
2018-01-13T18:29:56.772Z,17.77
2018-01-13T18:32:29.486Z,17.03
2018-01-13T18:35:02.225Z,16.83
2018-01-13T18:37:34.976Z,18.97
2018-01-13T18:40:07.748Z,18.30
2018-01-13T18:42:40.427Z,20.27
2018-01-13T18:45:13.103Z,18.37
2018-01-13T18:47:45.948Z,18.37
2018-01-13T18:50:18.670Z,18.73
2018-01-13T18:52:51.513Z,18.13
2018-01-13T18:55:24.981Z,19.07
2018-01-13T18:57:58.859Z,18.57
2018-01-13T19:00:31.554Z,21.53
2018-01-13T19:03:04.272Z,20.07
2018-01-13T19:05:36.918Z,19.13
2018-01-13T19:08:09.431Z,20.33
2018-01-13T19:10:42.271Z,21.07
2018-01-13T19:13:14.814Z,20.57
2018-01-13T19:15:47.432Z,20.33
2018-01-13T19:18:20.383Z,22.50
2018-01-13T19:20:52.994Z,18.40
2018-01-13T19:23:25.776Z,19.13
2018-01-13T19:25:58.426Z,19.00
2018-01-13T19:28:31.065Z,20.40
2018-01-13T19:31:03.927Z,20.80
2018-01-13T19:33:37.418Z,20.07
2018-01-13T19:36:09.978Z,17.43
2018-01-13T19:38:42.793Z,18.13
2018-01-13T19:41:16.358Z,18.33
2018-01-13T19:43:49.024Z,18.73
2018-01-13T19:46:21.779Z,18.97
2018-01-13T19:48:55.576Z,17.83
2018-01-13T19:51:28.231Z,18.80
2018-01-13T19:54:01.084Z,18.43
2018-01-13T19:56:33.829Z,16.77
2018-01-13T19:59:07.781Z,19.20
2018-01-13T20:01:40.296Z,17.40
2018-01-13T20:04:13.045Z,17.10
2018-01-13T20:06:45.701Z,17.33
2018-01-13T20:09:18.452Z,17.23
2018-01-13T20:11:51.067Z,16.03
2018-01-13T20:14:23.804Z,17.97
2018-01-13T20:16:57.643Z,16.17
2018-01-13T20:19:30.516Z,15.20
2018-01-13T20:22:03.038Z,15.80
2018-01-13T20:24:35.766Z,15.63
2018-01-13T20:27:08.400Z,12.53
2018-01-13T20:29:42.060Z,16.07
2018-01-13T20:32:14.781Z,15.07
2018-01-13T20:34:47.412Z,15.17
2018-01-13T20:37:20.048Z,14.87
2018-01-13T20:39:52.865Z,14.37
2018-01-13T20:42:25.600Z,14.33
2018-01-13T20:44:58.382Z,15.10
2018-01-13T20:47:31.835Z,15.13
2018-01-13T20:50:04.495Z,14.83
2018-01-13T20:52:37.117Z,14.67
2018-01-13T20:55:09.755Z,14.47
2018-01-13T20:57:42.805Z,15.90
2018-01-13T21:00:15.466Z,14.50
2018-01-13T21:02:48.178Z,13.57
2018-01-13T21:05:20.932Z,14.50
2018-01-13T21:07:53.553Z,14.80
2018-01-13T21:10:26.770Z,13.90
2018-01-13T21:13:00.192Z,14.03
2018-01-13T21:15:32.938Z,12.90
2018-01-13T21:18:05.660Z,13.60
2018-01-13T21:20:38.922Z,13.33
2018-01-13T21:23:12.316Z,13.53
2018-01-13T21:25:45.746Z,14.87
2018-01-13T21:28:18.382Z,14.03
2018-01-13T21:30:51.127Z,13.87
2018-01-13T21:33:24.805Z,12.30
2018-01-13T21:35:57.512Z,13.90
2018-01-13T21:38:30.193Z,13.57
2018-01-13T21:41:02.843Z,14.03
2018-01-13T21:43:35.589Z,13.93
2018-01-13T21:46:08.113Z,14.10
2018-01-13T21:48:40.948Z,13.53
2018-01-13T21:51:13.497Z,13.90
2018-01-13T21:53:46.045Z,13.80
2018-01-13T21:56:18.584Z,13.13
2018-01-13T21:58:52.117Z,13.60
2018-01-13T22:01:25.749Z,13.70
2018-01-13T22:03:58.397Z,15.00
2018-01-13T22:06:31.290Z,12.90
2018-01-13T22:09:03.843Z,13.00
2018-01-13T22:11:37.872Z,12.77
2018-01-13T22:14:10.779Z,21.73
2018-01-13T22:16:43.307Z,13.30
2018-01-13T22:19:16.951Z,14.40
2018-01-13T22:21:49.775Z,13.63
2018-01-13T22:24:22.387Z,13.73
2018-01-13T22:26:55.173Z,12.77
2018-01-13T22:29:30.228Z,13.33
2018-01-13T22:32:03.525Z,12.47
2018-01-13T22:34:36.165Z,13.97
2018-01-13T22:37:08.828Z,15.80
2018-01-13T22:39:41.671Z,13.43
2018-01-13T22:42:14.339Z,14.13
2018-01-13T22:44:46.936Z,12.70
2018-01-13T22:47:19.454Z,12.90
2018-01-13T22:49:52.220Z,11.97
2018-01-13T22:52:25.028Z,13.37
2018-01-13T22:54:57.712Z,13.33
2018-01-13T22:57:31.214Z,15.40
2018-01-13T23:00:03.959Z,12.57
2018-01-13T23:02:36.511Z,12.40
2018-01-13T23:05:09.083Z,12.57
2018-01-13T23:07:42.716Z,12.33
2018-01-13T23:10:15.277Z,11.87
2018-01-13T23:12:48.122Z,13.23
2018-01-13T23:15:20.868Z,13.57
2018-01-13T23:17:54.470Z,12.27
2018-01-13T23:20:27.183Z,11.60
2018-01-13T23:22:59.826Z,12.50
2018-01-13T23:25:32.581Z,11.97
2018-01-13T23:28:05.303Z,12.50
2018-01-13T23:30:37.937Z,12.03
2018-01-13T23:33:10.687Z,12.17
2018-01-13T23:35:43.352Z,10.70
2018-01-13T23:38:16.993Z,10.57
2018-01-13T23:40:49.583Z,11.60
2018-01-13T23:43:22.077Z,11.27
2018-01-13T23:45:55.016Z,10.50
2018-01-13T23:48:27.831Z,10.77
2018-01-13T23:51:00.424Z,11.63
2018-01-13T23:53:32.945Z,10.10
2018-01-13T23:56:05.598Z,11.63
2018-01-13T23:58:38.104Z,11.17
